Terminal Aerodrome Forecast
Issued by NWS

Home | Current Version | Previous Version | Text Only | Print | Product List | Glossary On
Versions: 1 2 3 4 5 6 7 8 9 10 11 12
117
FTUS46 KMTR 110526
TAFSJC
TAF
KSJC 110526Z 1106/1206 VRB03KT P6SM FEW120 SCT240
     FM111500 16004KT 6SM HZ FEW150 SCT200
     FM111900 32004KT P6SM SCT200
     FM112200 31006KT P6SM FEW200
     FM120500 00000KT P6SM FEW200=

USA.gov is the U.S. government's official web portal to all federal, state and local government web resources and services.